sensor_id;sensor_type;location;lat;lon;timestamp;P1;durP1;ratioP1;P2;durP2;ratioP2
60665;SDS011;59128;44.642;21.188;2022-11-11T00:00:03;40.95;;;25.83;;
60665;SDS011;59128;44.642;21.188;2022-11-11T00:02:29;41.10;;;26.00;;
60665;SDS011;59128;44.642;21.188;2022-11-11T00:04:55;40.67;;;25.50;;
60665;SDS011;59128;44.642;21.188;2022-11-11T00:07:21;42.17;;;26.48;;
60665;SDS011;59128;44.642;21.188;2022-11-11T00:09:47;39.67;;;26.08;;
60665;SDS011;59128;44.642;21.188;2022-11-11T00:12:13;40.70;;;26.05;;
60665;SDS011;59128;44.642;21.188;2022-11-11T00:14:39;41.22;;;26.15;;
60665;SDS011;59128;44.642;21.188;2022-11-11T00:17:05;39.43;;;25.77;;
60665;SDS011;59128;44.642;21.188;2022-11-11T00:19:50;39.25;;;25.15;;
60665;SDS011;59128;44.642;21.188;2022-11-11T00:22:35;37.60;;;24.83;;
60665;SDS011;59128;44.642;21.188;2022-11-11T00:25:19;37.75;;;25.58;;
60665;SDS011;59128;44.642;21.188;2022-11-11T00:27:46;41.20;;;26.35;;
60665;SDS011;59128;44.642;21.188;2022-11-11T00:30:12;38.38;;;25.45;;
60665;SDS011;59128;44.642;21.188;2022-11-11T00:32:38;39.17;;;25.77;;
60665;SDS011;59128;44.642;21.188;2022-11-11T00:35:04;37.63;;;25.77;;
60665;SDS011;59128;44.642;21.188;2022-11-11T00:37:49;36.95;;;25.17;;
60665;SDS011;59128;44.642;21.188;2022-11-11T00:40:15;37.10;;;25.37;;
60665;SDS011;59128;44.642;21.188;2022-11-11T00:42:41;39.47;;;26.35;;
60665;SDS011;59128;44.642;21.188;2022-11-11T00:45:08;37.45;;;25.40;;
60665;SDS011;59128;44.642;21.188;2022-11-11T00:47:35;36.65;;;25.17;;
60665;SDS011;59128;44.642;21.188;2022-11-11T00:50:26;37.75;;;25.20;;
60665;SDS011;59128;44.642;21.188;2022-11-11T00:53:12;37.40;;;25.13;;
60665;SDS011;59128;44.642;21.188;2022-11-11T00:55:38;36.70;;;25.27;;
60665;SDS011;59128;44.642;21.188;2022-11-11T00:58:05;36.65;;;25.45;;
60665;SDS011;59128;44.642;21.188;2022-11-11T01:00:31;39.22;;;25.88;;
60665;SDS011;59128;44.642;21.188;2022-11-11T01:02:57;38.40;;;25.77;;
60665;SDS011;59128;44.642;21.188;2022-11-11T01:05:24;36.45;;;25.50;;
60665;SDS011;59128;44.642;21.188;2022-11-11T01:07:50;35.63;;;25.13;;
60665;SDS011;59128;44.642;21.188;2022-11-11T01:10:16;36.53;;;25.45;;
60665;SDS011;59128;44.642;21.188;2022-11-11T01:13:02;37.92;;;25.92;;
60665;SDS011;59128;44.642;21.188;2022-11-11T01:15:37;35.97;;;25.30;;
60665;SDS011;59128;44.642;21.188;2022-11-11T01:18:04;37.38;;;25.65;;
60665;SDS011;59128;44.642;21.188;2022-11-11T01:20:30;36.15;;;25.15;;
60665;SDS011;59128;44.642;21.188;2022-11-11T01:22:56;35.15;;;24.73;;
60665;SDS011;59128;44.642;21.188;2022-11-11T01:25:22;36.97;;;25.13;;
60665;SDS011;59128;44.642;21.188;2022-11-11T01:27:48;37.35;;;25.27;;
60665;SDS011;59128;44.642;21.188;2022-11-11T01:30:14;37.33;;;25.65;;
60665;SDS011;59128;44.642;21.188;2022-11-11T01:32:40;37.30;;;25.38;;
60665;SDS011;59128;44.642;21.188;2022-11-11T01:35:07;36.13;;;25.40;;
60665;SDS011;59128;44.642;21.188;2022-11-11T01:37:33;36.58;;;25.65;;
60665;SDS011;59128;44.642;21.188;2022-11-11T01:39:59;36.63;;;25.05;;
60665;SDS011;59128;44.642;21.188;2022-11-11T01:42:25;36.97;;;26.07;;
60665;SDS011;59128;44.642;21.188;2022-11-11T01:44:51;35.53;;;25.45;;
60665;SDS011;59128;44.642;21.188;2022-11-11T01:47:17;35.50;;;25.50;;
60665;SDS011;59128;44.642;21.188;2022-11-11T01:52:17;39.30;;;26.95;;
60665;SDS011;59128;44.642;21.188;2022-11-11T01:57:15;35.88;;;25.02;;
60665;SDS011;59128;44.642;21.188;2022-11-11T01:59:43;37.05;;;26.00;;
60665;SDS011;59128;44.642;21.188;2022-11-11T02:02:26;37.97;;;26.75;;
60665;SDS011;59128;44.642;21.188;2022-11-11T02:04:53;40.28;;;26.45;;
60665;SDS011;59128;44.642;21.188;2022-11-11T02:07:38;38.00;;;26.25;;
60665;SDS011;59128;44.642;21.188;2022-11-11T02:10:05;36.70;;;25.70;;
60665;SDS011;59128;44.642;21.188;2022-11-11T02:12:32;37.03;;;26.30;;
60665;SDS011;59128;44.642;21.188;2022-11-11T02:15:17;40.17;;;27.08;;
60665;SDS011;59128;44.642;21.188;2022-11-11T02:17:43;38.97;;;26.50;;
60665;SDS011;59128;44.642;21.188;2022-11-11T02:20:11;37.00;;;25.70;;
60665;SDS011;59128;44.642;21.188;2022-11-11T02:25:24;37.97;;;26.40;;
60665;SDS011;59128;44.642;21.188;2022-11-11T02:27:52;40.03;;;27.45;;
60665;SDS011;59128;44.642;21.188;2022-11-11T02:30:22;38.05;;;26.02;;
60665;SDS011;59128;44.642;21.188;2022-11-11T02:32:48;39.17;;;26.93;;
60665;SDS011;59128;44.642;21.188;2022-11-11T02:35:16;36.00;;;26.15;;
60665;SDS011;59128;44.642;21.188;2022-11-11T02:37:43;36.60;;;26.63;;
60665;SDS011;59128;44.642;21.188;2022-11-11T02:40:19;37.40;;;26.20;;
60665;SDS011;59128;44.642;21.188;2022-11-11T02:42:46;37.40;;;26.27;;
60665;SDS011;59128;44.642;21.188;2022-11-11T02:45:12;37.78;;;26.35;;
60665;SDS011;59128;44.642;21.188;2022-11-11T02:47:38;38.33;;;26.88;;
60665;SDS011;59128;44.642;21.188;2022-11-11T02:50:04;38.95;;;26.48;;
60665;SDS011;59128;44.642;21.188;2022-11-11T02:52:31;37.40;;;26.77;;
60665;SDS011;59128;44.642;21.188;2022-11-11T02:54:57;37.27;;;26.93;;
60665;SDS011;59128;44.642;21.188;2022-11-11T02:57:23;36.63;;;26.92;;
60665;SDS011;59128;44.642;21.188;2022-11-11T02:59:49;37.92;;;26.42;;
60665;SDS011;59128;44.642;21.188;2022-11-11T03:02:15;34.55;;;25.52;;
60665;SDS011;59128;44.642;21.188;2022-11-11T03:04:41;35.20;;;26.35;;
60665;SDS011;59128;44.642;21.188;2022-11-11T03:07:07;36.38;;;25.75;;
60665;SDS011;59128;44.642;21.188;2022-11-11T03:09:35;35.03;;;26.17;;
60665;SDS011;59128;44.642;21.188;2022-11-11T03:12:01;36.60;;;26.00;;
60665;SDS011;59128;44.642;21.188;2022-11-11T03:14:27;35.05;;;25.08;;
60665;SDS011;59128;44.642;21.188;2022-11-11T03:16:53;34.95;;;25.20;;
60665;SDS011;59128;44.642;21.188;2022-11-11T03:19:38;36.35;;;26.17;;
60665;SDS011;59128;44.642;21.188;2022-11-11T03:22:04;36.95;;;27.20;;
60665;SDS011;59128;44.642;21.188;2022-11-11T03:24:30;36.80;;;26.50;;
60665;SDS011;59128;44.642;21.188;2022-11-11T03:27:15;38.90;;;27.95;;
60665;SDS011;59128;44.642;21.188;2022-11-11T03:29:41;39.10;;;26.70;;
60665;SDS011;59128;44.642;21.188;2022-11-11T03:32:07;36.47;;;26.10;;
60665;SDS011;59128;44.642;21.188;2022-11-11T03:34:34;37.20;;;27.30;;
60665;SDS011;59128;44.642;21.188;2022-11-11T03:37:00;36.08;;;26.23;;
60665;SDS011;59128;44.642;21.188;2022-11-11T03:39:44;35.72;;;26.42;;
60665;SDS011;59128;44.642;21.188;2022-11-11T03:42:10;37.15;;;26.85;;
60665;SDS011;59128;44.642;21.188;2022-11-11T03:44:36;35.72;;;26.40;;
60665;SDS011;59128;44.642;21.188;2022-11-11T03:47:02;36.80;;;25.90;;
60665;SDS011;59128;44.642;21.188;2022-11-11T03:49:28;34.25;;;26.17;;
60665;SDS011;59128;44.642;21.188;2022-11-11T03:51:54;34.90;;;26.35;;
60665;SDS011;59128;44.642;21.188;2022-11-11T03:54:20;36.13;;;26.63;;
60665;SDS011;59128;44.642;21.188;2022-11-11T03:56:46;34.63;;;26.63;;
60665;SDS011;59128;44.642;21.188;2022-11-11T03:59:12;34.87;;;25.37;;
60665;SDS011;59128;44.642;21.188;2022-11-11T04:01:38;34.92;;;26.27;;
60665;SDS011;59128;44.642;21.188;2022-11-11T04:04:23;35.78;;;27.00;;
60665;SDS011;59128;44.642;21.188;2022-11-11T04:07:08;39.70;;;28.43;;
60665;SDS011;59128;44.642;21.188;2022-11-11T04:09:53;37.72;;;27.85;;
60665;SDS011;59128;44.642;21.188;2022-11-11T04:12:37;38.50;;;28.33;;
60665;SDS011;59128;44.642;21.188;2022-11-11T04:15:23;36.38;;;27.35;;
60665;SDS011;59128;44.642;21.188;2022-11-11T04:18:08;36.47;;;27.85;;
60665;SDS011;59128;44.642;21.188;2022-11-11T04:20:34;37.50;;;27.83;;
60665;SDS011;59128;44.642;21.188;2022-11-11T04:23:19;36.83;;;27.98;;
60665;SDS011;59128;44.642;21.188;2022-11-11T04:25:45;37.90;;;26.98;;
60665;SDS011;59128;44.642;21.188;2022-11-11T04:28:13;34.42;;;26.65;;
60665;SDS011;59128;44.642;21.188;2022-11-11T04:30:58;34.45;;;27.00;;
60665;SDS011;59128;44.642;21.188;2022-11-11T04:33:24;33.95;;;26.15;;
60665;SDS011;59128;44.642;21.188;2022-11-11T04:35:51;35.13;;;26.67;;
60665;SDS011;59128;44.642;21.188;2022-11-11T04:38:17;34.30;;;27.25;;
60665;SDS011;59128;44.642;21.188;2022-11-11T04:41:01;34.17;;;25.88;;
60665;SDS011;59128;44.642;21.188;2022-11-11T04:43:28;32.60;;;26.40;;
60665;SDS011;59128;44.642;21.188;2022-11-11T04:45:58;33.63;;;26.30;;
60665;SDS011;59128;44.642;21.188;2022-11-11T04:48:24;33.17;;;25.23;;
60665;SDS011;59128;44.642;21.188;2022-11-11T04:50:50;34.50;;;26.53;;
60665;SDS011;59128;44.642;21.188;2022-11-11T04:53:16;34.42;;;25.95;;
60665;SDS011;59128;44.642;21.188;2022-11-11T04:55:43;34.35;;;25.75;;
60665;SDS011;59128;44.642;21.188;2022-11-11T04:58:32;35.78;;;27.17;;
60665;SDS011;59128;44.642;21.188;2022-11-11T05:00:58;36.47;;;27.65;;
60665;SDS011;59128;44.642;21.188;2022-11-11T05:03:25;34.53;;;25.95;;
60665;SDS011;59128;44.642;21.188;2022-11-11T05:08:37;35.20;;;26.85;;
60665;SDS011;59128;44.642;21.188;2022-11-11T05:13:52;34.55;;;26.70;;
60665;SDS011;59128;44.642;21.188;2022-11-11T05:16:39;32.58;;;25.63;;
60665;SDS011;59128;44.642;21.188;2022-11-11T05:19:24;35.22;;;26.45;;
60665;SDS011;59128;44.642;21.188;2022-11-11T05:22:18;32.80;;;25.58;;
60665;SDS011;59128;44.642;21.188;2022-11-11T05:24:46;34.60;;;26.85;;
60665;SDS011;59128;44.642;21.188;2022-11-11T05:27:30;35.92;;;27.25;;
60665;SDS011;59128;44.642;21.188;2022-11-11T05:29:57;34.38;;;26.10;;
60665;SDS011;59128;44.642;21.188;2022-11-11T05:32:23;32.97;;;25.40;;
60665;SDS011;59128;44.642;21.188;2022-11-11T05:34:49;33.70;;;26.20;;
60665;SDS011;59128;44.642;21.188;2022-11-11T05:37:16;33.53;;;25.48;;
60665;SDS011;59128;44.642;21.188;2022-11-11T05:39:42;33.45;;;25.60;;
60665;SDS011;59128;44.642;21.188;2022-11-11T05:42:08;32.22;;;25.80;;
60665;SDS011;59128;44.642;21.188;2022-11-11T05:44:35;33.85;;;25.17;;
60665;SDS011;59128;44.642;21.188;2022-11-11T05:47:01;34.58;;;26.13;;
60665;SDS011;59128;44.642;21.188;2022-11-11T05:49:27;35.50;;;26.23;;
60665;SDS011;59128;44.642;21.188;2022-11-11T05:51:53;34.15;;;26.70;;
60665;SDS011;59128;44.642;21.188;2022-11-11T05:54:22;37.35;;;26.38;;
60665;SDS011;59128;44.642;21.188;2022-11-11T05:56:49;35.60;;;25.90;;
60665;SDS011;59128;44.642;21.188;2022-11-11T05:59:15;32.28;;;25.02;;
60665;SDS011;59128;44.642;21.188;2022-11-11T06:01:41;33.30;;;25.05;;
60665;SDS011;59128;44.642;21.188;2022-11-11T06:04:07;33.35;;;24.60;;
60665;SDS011;59128;44.642;21.188;2022-11-11T06:06:33;34.53;;;24.92;;
60665;SDS011;59128;44.642;21.188;2022-11-11T06:09:00;32.88;;;24.20;;
60665;SDS011;59128;44.642;21.188;2022-11-11T06:11:26;33.07;;;24.80;;
60665;SDS011;59128;44.642;21.188;2022-11-11T06:13:53;31.75;;;23.88;;
60665;SDS011;59128;44.642;21.188;2022-11-11T06:16:19;34.05;;;25.00;;
60665;SDS011;59128;44.642;21.188;2022-11-11T06:18:45;36.13;;;25.52;;
60665;SDS011;59128;44.642;21.188;2022-11-11T06:21:11;32.13;;;25.23;;
60665;SDS011;59128;44.642;21.188;2022-11-11T06:23:37;33.78;;;24.48;;
60665;SDS011;59128;44.642;21.188;2022-11-11T06:26:04;32.88;;;24.92;;
60665;SDS011;59128;44.642;21.188;2022-11-11T06:28:44;32.55;;;24.35;;
60665;SDS011;59128;44.642;21.188;2022-11-11T06:31:12;32.55;;;24.13;;
60665;SDS011;59128;44.642;21.188;2022-11-11T06:33:38;31.35;;;23.85;;
60665;SDS011;59128;44.642;21.188;2022-11-11T06:36:05;31.50;;;23.57;;
60665;SDS011;59128;44.642;21.188;2022-11-11T06:38:32;32.25;;;23.02;;
60665;SDS011;59128;44.642;21.188;2022-11-11T06:40:58;32.00;;;23.75;;
60665;SDS011;59128;44.642;21.188;2022-11-11T06:43:24;31.23;;;23.73;;
60665;SDS011;59128;44.642;21.188;2022-11-11T06:45:50;31.15;;;23.80;;
60665;SDS011;59128;44.642;21.188;2022-11-11T06:48:17;31.48;;;22.88;;
60665;SDS011;59128;44.642;21.188;2022-11-11T06:50:43;31.05;;;23.27;;
60665;SDS011;59128;44.642;21.188;2022-11-11T06:53:10;33.28;;;24.23;;
60665;SDS011;59128;44.642;21.188;2022-11-11T06:55:36;29.83;;;23.67;;
60665;SDS011;59128;44.642;21.188;2022-11-11T06:58:03;30.60;;;23.73;;
60665;SDS011;59128;44.642;21.188;2022-11-11T07:00:29;33.25;;;24.92;;
60665;SDS011;59128;44.642;21.188;2022-11-11T07:02:56;33.30;;;24.10;;
60665;SDS011;59128;44.642;21.188;2022-11-11T07:05:22;33.47;;;24.33;;
60665;SDS011;59128;44.642;21.188;2022-11-11T07:07:48;34.38;;;25.35;;
60665;SDS011;59128;44.642;21.188;2022-11-11T07:10:14;32.23;;;25.27;;
60665;SDS011;59128;44.642;21.188;2022-11-11T07:12:41;34.22;;;24.75;;
60665;SDS011;59128;44.642;21.188;2022-11-11T07:15:08;35.33;;;25.15;;
60665;SDS011;59128;44.642;21.188;2022-11-11T07:17:34;37.30;;;25.98;;
60665;SDS011;59128;44.642;21.188;2022-11-11T07:20:00;33.35;;;25.83;;
60665;SDS011;59128;44.642;21.188;2022-11-11T07:22:26;32.90;;;25.35;;
60665;SDS011;59128;44.642;21.188;2022-11-11T07:24:52;34.97;;;25.93;;
60665;SDS011;59128;44.642;21.188;2022-11-11T07:27:18;35.40;;;26.20;;
60665;SDS011;59128;44.642;21.188;2022-11-11T07:29:44;37.45;;;28.42;;
60665;SDS011;59128;44.642;21.188;2022-11-11T07:32:10;37.92;;;31.23;;
60665;SDS011;59128;44.642;21.188;2022-11-11T07:34:36;37.50;;;28.33;;
60665;SDS011;59128;44.642;21.188;2022-11-11T07:37:02;36.83;;;27.25;;
60665;SDS011;59128;44.642;21.188;2022-11-11T07:39:28;36.50;;;27.23;;
60665;SDS011;59128;44.642;21.188;2022-11-11T07:41:54;36.47;;;26.50;;
60665;SDS011;59128;44.642;21.188;2022-11-11T07:44:20;36.75;;;27.48;;
60665;SDS011;59128;44.642;21.188;2022-11-11T07:46:46;40.92;;;28.45;;
60665;SDS011;59128;44.642;21.188;2022-11-11T07:49:12;38.72;;;28.63;;
60665;SDS011;59128;44.642;21.188;2022-11-11T07:51:38;37.80;;;27.20;;
60665;SDS011;59128;44.642;21.188;2022-11-11T07:54:04;39.45;;;27.48;;
60665;SDS011;59128;44.642;21.188;2022-11-11T07:56:30;36.60;;;26.70;;
60665;SDS011;59128;44.642;21.188;2022-11-11T07:58:56;38.50;;;28.13;;
60665;SDS011;59128;44.642;21.188;2022-11-11T08:01:22;37.65;;;26.67;;
60665;SDS011;59128;44.642;21.188;2022-11-11T08:03:48;36.22;;;27.15;;
60665;SDS011;59128;44.642;21.188;2022-11-11T08:06:18;35.60;;;25.10;;
60665;SDS011;59128;44.642;21.188;2022-11-11T08:08:44;34.40;;;25.48;;
60665;SDS011;59128;44.642;21.188;2022-11-11T08:11:11;40.22;;;26.85;;
60665;SDS011;59128;44.642;21.188;2022-11-11T08:13:37;38.38;;;27.80;;
60665;SDS011;59128;44.642;21.188;2022-11-11T08:16:08;37.15;;;27.58;;
60665;SDS011;59128;44.642;21.188;2022-11-11T08:18:34;36.35;;;26.92;;
60665;SDS011;59128;44.642;21.188;2022-11-11T08:21:01;35.55;;;27.10;;
60665;SDS011;59128;44.642;21.188;2022-11-11T08:23:27;35.03;;;26.88;;
60665;SDS011;59128;44.642;21.188;2022-11-11T08:26:03;36.33;;;26.75;;
60665;SDS011;59128;44.642;21.188;2022-11-11T08:28:30;35.33;;;26.67;;
60665;SDS011;59128;44.642;21.188;2022-11-11T08:30:57;37.38;;;27.25;;
60665;SDS011;59128;44.642;21.188;2022-11-11T08:33:23;37.38;;;27.80;;
60665;SDS011;59128;44.642;21.188;2022-11-11T08:35:50;37.40;;;27.30;;
60665;SDS011;59128;44.642;21.188;2022-11-11T08:38:18;37.00;;;27.60;;
60665;SDS011;59128;44.642;21.188;2022-11-11T08:40:44;37.92;;;28.35;;
60665;SDS011;59128;44.642;21.188;2022-11-11T08:43:10;37.95;;;27.55;;
60665;SDS011;59128;44.642;21.188;2022-11-11T08:45:36;36.65;;;27.58;;
60665;SDS011;59128;44.642;21.188;2022-11-11T08:48:02;37.83;;;27.50;;
60665;SDS011;59128;44.642;21.188;2022-11-11T08:50:29;36.10;;;27.88;;
60665;SDS011;59128;44.642;21.188;2022-11-11T08:52:55;41.60;;;29.92;;
60665;SDS011;59128;44.642;21.188;2022-11-11T08:55:21;42.80;;;30.80;;
60665;SDS011;59128;44.642;21.188;2022-11-11T08:57:47;42.42;;;30.02;;
60665;SDS011;59128;44.642;21.188;2022-11-11T09:00:21;46.85;;;31.73;;
60665;SDS011;59128;44.642;21.188;2022-11-11T09:02:48;41.90;;;31.73;;
60665;SDS011;59128;44.642;21.188;2022-11-11T09:05:14;39.53;;;29.92;;
60665;SDS011;59128;44.642;21.188;2022-11-11T09:07:40;43.28;;;31.08;;
60665;SDS011;59128;44.642;21.188;2022-11-11T09:10:06;42.20;;;30.17;;
60665;SDS011;59128;44.642;21.188;2022-11-11T09:12:32;42.40;;;30.80;;
60665;SDS011;59128;44.642;21.188;2022-11-11T09:14:58;39.60;;;30.08;;
60665;SDS011;59128;44.642;21.188;2022-11-11T09:17:25;38.83;;;29.70;;
60665;SDS011;59128;44.642;21.188;2022-11-11T09:19:51;39.33;;;29.90;;
60665;SDS011;59128;44.642;21.188;2022-11-11T09:22:17;40.47;;;29.80;;
60665;SDS011;59128;44.642;21.188;2022-11-11T09:24:43;38.95;;;29.35;;
60665;SDS011;59128;44.642;21.188;2022-11-11T09:27:09;38.67;;;29.38;;
60665;SDS011;59128;44.642;21.188;2022-11-11T09:29:35;38.05;;;30.13;;
60665;SDS011;59128;44.642;21.188;2022-11-11T09:32:01;41.25;;;31.17;;
60665;SDS011;59128;44.642;21.188;2022-11-11T09:34:28;43.97;;;32.13;;
60665;SDS011;59128;44.642;21.188;2022-11-11T09:36:54;41.78;;;32.60;;
60665;SDS011;59128;44.642;21.188;2022-11-11T09:39:20;43.40;;;32.53;;
60665;SDS011;59128;44.642;21.188;2022-11-11T09:46:55;45.05;;;33.75;;
60665;SDS011;59128;44.642;21.188;2022-11-11T09:49:27;45.63;;;33.15;;
60665;SDS011;59128;44.642;21.188;2022-11-11T09:52:13;45.42;;;34.28;;
60665;SDS011;59128;44.642;21.188;2022-11-11T09:54:54;46.03;;;34.47;;
60665;SDS011;59128;44.642;21.188;2022-11-11T09:57:37;48.28;;;35.33;;
60665;SDS011;59128;44.642;21.188;2022-11-11T10:00:05;45.80;;;34.88;;
60665;SDS011;59128;44.642;21.188;2022-11-11T10:02:39;48.70;;;34.22;;
60665;SDS011;59128;44.642;21.188;2022-11-11T10:05:07;47.65;;;34.70;;
60665;SDS011;59128;44.642;21.188;2022-11-11T10:07:57;46.97;;;34.70;;
60665;SDS011;59128;44.642;21.188;2022-11-11T10:12:57;47.15;;;34.20;;
60665;SDS011;59128;44.642;21.188;2022-11-11T10:15:25;45.45;;;34.38;;
60665;SDS011;59128;44.642;21.188;2022-11-11T10:17:56;44.87;;;34.27;;
60665;SDS011;59128;44.642;21.188;2022-11-11T10:20:27;45.95;;;34.20;;
60665;SDS011;59128;44.642;21.188;2022-11-11T10:22:59;43.63;;;33.72;;
60665;SDS011;59128;44.642;21.188;2022-11-11T10:25:26;44.20;;;34.33;;
60665;SDS011;59128;44.642;21.188;2022-11-11T10:27:54;44.53;;;33.57;;
60665;SDS011;59128;44.642;21.188;2022-11-11T10:30:22;42.37;;;33.47;;
60665;SDS011;59128;44.642;21.188;2022-11-11T10:32:52;43.50;;;34.83;;
60665;SDS011;59128;44.642;21.188;2022-11-11T10:35:20;42.28;;;33.15;;
60665;SDS011;59128;44.642;21.188;2022-11-11T10:37:47;46.42;;;33.47;;
60665;SDS011;59128;44.642;21.188;2022-11-11T10:40:20;44.95;;;34.25;;
60665;SDS011;59128;44.642;21.188;2022-11-11T10:42:48;44.40;;;33.25;;
60665;SDS011;59128;44.642;21.188;2022-11-11T10:48:04;45.42;;;34.95;;
60665;SDS011;59128;44.642;21.188;2022-11-11T10:50:42;45.00;;;34.15;;
60665;SDS011;59128;44.642;21.188;2022-11-11T10:55:38;44.30;;;34.13;;
60665;SDS011;59128;44.642;21.188;2022-11-11T10:58:09;46.15;;;33.80;;
60665;SDS011;59128;44.642;21.188;2022-11-11T11:00:36;46.42;;;34.88;;
60665;SDS011;59128;44.642;21.188;2022-11-11T11:05:39;47.22;;;35.33;;
60665;SDS011;59128;44.642;21.188;2022-11-11T11:08:08;43.95;;;33.50;;
60665;SDS011;59128;44.642;21.188;2022-11-11T11:10:38;42.93;;;32.93;;
60665;SDS011;59128;44.642;21.188;2022-11-11T11:13:06;42.53;;;32.60;;
60665;SDS011;59128;44.642;21.188;2022-11-11T11:15:38;45.13;;;33.90;;
60665;SDS011;59128;44.642;21.188;2022-11-11T11:20:30;42.83;;;30.95;;
60665;SDS011;59128;44.642;21.188;2022-11-11T11:22:57;41.23;;;30.80;;
60665;SDS011;59128;44.642;21.188;2022-11-11T11:25:25;40.53;;;30.10;;
60665;SDS011;59128;44.642;21.188;2022-11-11T11:28:03;45.58;;;32.80;;
60665;SDS011;59128;44.642;21.188;2022-11-11T11:30:29;45.15;;;32.28;;
60665;SDS011;59128;44.642;21.188;2022-11-11T11:32:59;45.67;;;32.55;;
60665;SDS011;59128;44.642;21.188;2022-11-11T11:37:58;50.22;;;34.42;;
60665;SDS011;59128;44.642;21.188;2022-11-11T11:40:24;50.60;;;34.53;;
60665;SDS011;59128;44.642;21.188;2022-11-11T11:42:50;51.13;;;34.27;;
60665;SDS011;59128;44.642;21.188;2022-11-11T11:45:26;53.03;;;35.33;;
60665;SDS011;59128;44.642;21.188;2022-11-11T11:50:39;46.15;;;31.38;;
60665;SDS011;59128;44.642;21.188;2022-11-11T11:55:41;46.30;;;32.78;;
60665;SDS011;59128;44.642;21.188;2022-11-11T12:11:41;45.63;;;32.70;;
60665;SDS011;59128;44.642;21.188;2022-11-11T12:25:10;49.83;;;35.63;;
60665;SDS011;59128;44.642;21.188;2022-11-11T12:35:16;54.97;;;41.75;;
60665;SDS011;59128;44.642;21.188;2022-11-11T12:38:04;56.40;;;40.70;;
60665;SDS011;59128;44.642;21.188;2022-11-11T12:51:39;54.35;;;40.72;;
60665;SDS011;59128;44.642;21.188;2022-11-11T12:56:44;47.67;;;36.25;;
60665;SDS011;59128;44.642;21.188;2022-11-11T13:01:49;42.97;;;31.90;;
60665;SDS011;59128;44.642;21.188;2022-11-11T13:06:47;34.53;;;26.67;;
60665;SDS011;59128;44.642;21.188;2022-11-11T13:17:10;34.10;;;27.23;;
60665;SDS011;59128;44.642;21.188;2022-11-11T13:19:41;37.85;;;29.20;;
60665;SDS011;59128;44.642;21.188;2022-11-11T13:24:40;34.47;;;26.77;;
60665;SDS011;59128;44.642;21.188;2022-11-11T13:27:12;33.83;;;27.13;;
60665;SDS011;59128;44.642;21.188;2022-11-11T13:30:01;33.53;;;27.20;;
60665;SDS011;59128;44.642;21.188;2022-11-11T13:32:51;33.15;;;26.60;;
60665;SDS011;59128;44.642;21.188;2022-11-11T13:35:37;34.42;;;26.15;;
60665;SDS011;59128;44.642;21.188;2022-11-11T13:38:01;32.30;;;25.75;;
60665;SDS011;59128;44.642;21.188;2022-11-11T13:40:31;35.53;;;27.38;;
60665;SDS011;59128;44.642;21.188;2022-11-11T13:42:58;31.95;;;26.73;;
60665;SDS011;59128;44.642;21.188;2022-11-11T13:45:26;34.17;;;26.67;;
60665;SDS011;59128;44.642;21.188;2022-11-11T13:47:52;32.50;;;26.42;;
60665;SDS011;59128;44.642;21.188;2022-11-11T13:50:22;31.60;;;25.95;;
60665;SDS011;59128;44.642;21.188;2022-11-11T13:52:57;34.03;;;26.02;;
60665;SDS011;59128;44.642;21.188;2022-11-11T13:55:28;32.58;;;26.38;;
60665;SDS011;59128;44.642;21.188;2022-11-11T13:57:56;31.30;;;26.10;;
60665;SDS011;59128;44.642;21.188;2022-11-11T14:00:23;32.53;;;24.67;;
60665;SDS011;59128;44.642;21.188;2022-11-11T14:05:35;34.03;;;26.10;;
60665;SDS011;59128;44.642;21.188;2022-11-11T14:08:01;31.83;;;24.85;;
60665;SDS011;59128;44.642;21.188;2022-11-11T14:12:53;29.85;;;24.05;;
60665;SDS011;59128;44.642;21.188;2022-11-11T14:15:33;31.10;;;25.30;;
60665;SDS011;59128;44.642;21.188;2022-11-11T14:18:00;28.38;;;23.33;;
60665;SDS011;59128;44.642;21.188;2022-11-11T14:23:12;30.58;;;24.20;;
60665;SDS011;59128;44.642;21.188;2022-11-11T14:25:39;30.95;;;23.98;;
60665;SDS011;59128;44.642;21.188;2022-11-11T14:30:51;28.35;;;23.77;;
60665;SDS011;59128;44.642;21.188;2022-11-11T14:36:06;26.15;;;22.00;;
60665;SDS011;59128;44.642;21.188;2022-11-11T14:38:58;26.33;;;21.38;;
60665;SDS011;59128;44.642;21.188;2022-11-11T14:52:49;26.00;;;20.35;;
60665;SDS011;59128;44.642;21.188;2022-11-11T15:03:00;27.52;;;20.42;;
60665;SDS011;59128;44.642;21.188;2022-11-11T15:05:46;27.83;;;19.88;;
60665;SDS011;59128;44.642;21.188;2022-11-11T15:11:42;24.27;;;19.83;;
60665;SDS011;59128;44.642;21.188;2022-11-11T15:26:56;26.00;;;20.55;;
60665;SDS011;59128;44.642;21.188;2022-11-11T15:35:29;28.02;;;21.02;;
60665;SDS011;59128;44.642;21.188;2022-11-11T15:37:27;34.67;;;26.23;;
60665;SDS011;59128;44.642;21.188;2022-11-11T15:39:54;45.83;;;35.25;;
60665;SDS011;59128;44.642;21.188;2022-11-11T15:42:28;56.25;;;42.80;;
60665;SDS011;59128;44.642;21.188;2022-11-11T15:44:55;50.70;;;39.15;;
60665;SDS011;59128;44.642;21.188;2022-11-11T15:47:23;52.60;;;40.92;;
60665;SDS011;59128;44.642;21.188;2022-11-11T15:49:49;52.22;;;39.65;;
60665;SDS011;59128;44.642;21.188;2022-11-11T15:54:48;59.15;;;45.40;;
60665;SDS011;59128;44.642;21.188;2022-11-11T15:57:23;80.57;;;65.20;;
60665;SDS011;59128;44.642;21.188;2022-11-11T15:59:50;73.97;;;58.08;;
60665;SDS011;59128;44.642;21.188;2022-11-11T16:02:22;67.72;;;50.13;;
60665;SDS011;59128;44.642;21.188;2022-11-11T16:05:00;60.38;;;47.92;;
60665;SDS011;59128;44.642;21.188;2022-11-11T16:07:29;48.28;;;36.58;;
60665;SDS011;59128;44.642;21.188;2022-11-11T16:09:57;47.50;;;36.88;;
60665;SDS011;59128;44.642;21.188;2022-11-11T16:12:31;47.73;;;38.93;;
60665;SDS011;59128;44.642;21.188;2022-11-11T16:14:57;40.30;;;32.08;;
60665;SDS011;59128;44.642;21.188;2022-11-11T16:17:26;41.43;;;32.43;;
60665;SDS011;59128;44.642;21.188;2022-11-11T16:19:54;46.13;;;34.67;;
60665;SDS011;59128;44.642;21.188;2022-11-11T16:22:21;48.10;;;38.50;;
60665;SDS011;59128;44.642;21.188;2022-11-11T16:24:48;51.97;;;41.20;;
60665;SDS011;59128;44.642;21.188;2022-11-11T16:27:27;58.97;;;46.40;;
60665;SDS011;59128;44.642;21.188;2022-11-11T16:29:53;50.13;;;38.05;;
60665;SDS011;59128;44.642;21.188;2022-11-11T16:34:48;88.03;;;64.70;;
60665;SDS011;59128;44.642;21.188;2022-11-11T16:37:15;70.72;;;53.40;;
60665;SDS011;59128;44.642;21.188;2022-11-11T16:39:42;84.70;;;58.58;;
60665;SDS011;59128;44.642;21.188;2022-11-11T16:52:26;72.65;;;51.05;;
60665;SDS011;59128;44.642;21.188;2022-11-11T16:54:53;73.50;;;52.10;;
60665;SDS011;59128;44.642;21.188;2022-11-11T16:57:28;74.90;;;53.40;;
60665;SDS011;59128;44.642;21.188;2022-11-11T16:59:58;101.95;;;76.38;;
60665;SDS011;59128;44.642;21.188;2022-11-11T17:02:25;80.70;;;59.50;;
60665;SDS011;59128;44.642;21.188;2022-11-11T17:04:55;76.35;;;55.08;;
60665;SDS011;59128;44.642;21.188;2022-11-11T17:10:07;79.13;;;60.78;;
60665;SDS011;59128;44.642;21.188;2022-11-11T17:12:35;89.22;;;66.10;;